Terminal Aerodrome Forecast
Issued by NWS

Home | Current Version | Previous Version | Text Only | Print | Product List | Glossary On
Versions: 1 2 3 4 5 6 7 8 9 10 11 12
000
FTUS45 KREV 301128
TAFMMH
TAF
KMMH 301128Z 3012/3112 VRB04KT P6SM SCT180
     FM301700 12009KT P6SM FEW080
     FM302000 22011G20KT P6SM SCT080 BKN140
     FM302300 25012G20KT P6SM FEW070 SCT140
     FM310200 28008G16KT P6SM SCT140=

USA.gov is the U.S. government's official web portal to all federal, state and local government web resources and services.